Time;durP1;ratioP1;P1;durP2;ratioP2;P2;SDS_P1;SDS_P2;PMS_P1;PMS_P2;Temp;Humidity;BMP_temperature;BMP_pressure;BME280_temperature;BME280_humidity;BME280_pressure;Samples;Min_cycle;Max_cycle;Signal;HPM_P1;HPM_P2
2022/03/23 00:02:16;;;;;;;;;;;18.30;29.50;;;;;;8330252;28;19917;-47
2022/03/23 00:06:17;;;;;;;;;;;18.30;29.50;;;;;;8330843;28;19913;-46
2022/03/23 00:10:17;;;;;;;;;;;18.30;29.50;;;;;;8330470;28;19933;-46
2022/03/23 00:14:18;;;;;;;;;;;18.30;29.50;;;;;;8329855;28;19921;-49
2022/03/23 00:18:18;;;;;;;;;;;18.30;29.50;;;;;;8330470;28;20328;-51
2022/03/23 00:22:19;;;;;;;;;;;18.30;29.90;;;;;;8330142;28;20354;-47
2022/03/23 00:26:19;;;;;;;;;;;18.30;29.60;;;;;;8329825;28;19914;-46
2022/03/23 00:30:21;;;;;;;;;;;18.30;29.60;;;;;;8329975;28;19925;-47
2022/03/23 00:34:21;;;;;;;;;;;18.30;29.60;;;;;;8330099;28;19995;-46
2022/03/23 00:38:22;;;;;;;;;;;18.30;29.60;;;;;;8329402;28;19924;-46
2022/03/23 00:42:22;;;;;;;;;;;18.30;29.60;;;;;;8330089;28;19933;-48
2022/03/23 00:46:24;;;;;;;;;;;18.30;29.60;;;;;;8330316;28;19913;-48
2022/03/23 00:50:25;;;;;;;;;;;18.20;29.60;;;;;;8329069;28;19925;-48
2022/03/23 00:54:25;;;;;;;;;;;18.20;29.60;;;;;;8329490;28;20020;-46
2022/03/23 00:58:26;;;;;;;;;;;18.20;29.60;;;;;;8354021;28;20366;-46
2022/03/23 01:02:26;;;;;;;;;;;18.20;29.60;;;;;;8361810;28;19971;-45
2022/03/23 01:06:27;;;;;;;;;;;18.20;29.60;;;;;;8364868;28;19917;-46
2022/03/23 01:10:27;;;;;;;;;;;18.20;29.60;;;;;;8368689;28;20002;-46
2022/03/23 01:14:28;;;;;;;;;;;18.20;29.60;;;;;;8368421;28;19979;-46
2022/03/23 01:18:28;;;;;;;;;;;18.20;29.70;;;;;;8368660;28;19960;-47
2022/03/23 01:22:29;;;;;;;;;;;18.20;29.60;;;;;;8368648;28;19996;-47
2022/03/23 01:26:29;;;;;;;;;;;18.10;29.60;;;;;;8368558;28;19959;-46
2022/03/23 01:30:30;;;;;;;;;;;18.10;29.60;;;;;;8368178;28;19979;-47
2022/03/23 01:34:30;;;;;;;;;;;18.10;29.70;;;;;;8368241;28;19924;-47
2022/03/23 01:38:31;;;;;;;;;;;18.10;29.60;;;;;;8367501;28;19917;-46
2022/03/23 01:42:31;;;;;;;;;;;18.10;29.60;;;;;;8367835;28;19912;-47
2022/03/23 01:46:32;;;;;;;;;;;18.10;29.70;;;;;;8350023;28;19913;-46
2022/03/23 01:50:33;;;;;;;;;;;18.00;29.60;;;;;;8367170;28;19925;-46
2022/03/23 01:54:35;;;;;;;;;;;18.10;29.70;;;;;;8367361;28;19917;-46
2022/03/23 01:58:36;;;;;;;;;;;18.00;29.60;;;;;;8367530;28;19917;-46
2022/03/23 02:02:36;;;;;;;;;;;18.10;29.70;;;;;;8366826;28;20329;-49
2022/03/23 02:06:37;;;;;;;;;;;18.00;29.60;;;;;;8361500;28;19917;-48
2022/03/23 02:10:38;;;;;;;;;;;18.00;29.70;;;;;;8334170;28;20011;-47
2022/03/23 02:14:38;;;;;;;;;;;18.00;29.70;;;;;;8333516;28;20382;-47
2022/03/23 02:18:39;;;;;;;;;;;18.00;29.70;;;;;;8332948;28;19917;-47
2022/03/23 02:22:39;;;;;;;;;;;18.00;29.70;;;;;;8333835;28;20000;-46
2022/03/23 02:26:41;;;;;;;;;;;18.00;29.70;;;;;;8340141;28;19917;-49
2022/03/23 02:30:41;;;;;;;;;;;17.90;29.70;;;;;;8366334;28;19924;-48
2022/03/23 02:34:42;;;;;;;;;;;17.90;29.70;;;;;;8366337;28;21293;-47
2022/03/23 02:38:42;;;;;;;;;;;17.90;29.70;;;;;;8365782;28;19921;-48
2022/03/23 02:42:43;;;;;;;;;;;17.90;29.70;;;;;;8366425;28;19920;-47
2022/03/23 02:46:43;;;;;;;;;;;17.90;29.70;;;;;;8366051;28;19960;-46
2022/03/23 02:50:44;;;;;;;;;;;17.90;29.70;;;;;;8365247;28;19925;-49
2022/03/23 03:03:26;;;;;;;;;;;17.80;29.70;;;;;;8365168;28;19988;-47
2022/03/23 03:07:26;;;;;;;;;;;17.80;29.70;;;;;;8365628;28;20357;-46
2022/03/23 03:11:27;;;;;;;;;;;17.80;29.70;;;;;;8364536;28;19987;-47
2022/03/23 03:15:27;;;;;;;;;;;17.80;29.70;;;;;;8365140;28;19921;-47
2022/03/23 03:19:28;;;;;;;;;;;17.80;29.80;;;;;;8364841;28;20004;-45
2022/03/23 03:23:30;;;;;;;;;;;17.80;29.70;;;;;;8364352;28;19927;-45
2022/03/23 03:27:31;;;;;;;;;;;17.80;29.80;;;;;;8364708;28;19913;-46
2022/03/23 03:31:31;;;;;;;;;;;17.80;30.10;;;;;;8364096;28;19931;-47
2022/03/23 03:35:32;;;;;;;;;;;17.80;29.70;;;;;;8364236;28;19917;-46
2022/03/23 03:39:32;;;;;;;;;;;17.80;29.80;;;;;;8364258;28;19920;-46
2022/03/23 03:43:33;;;;;;;;;;;17.80;29.80;;;;;;8364171;28;19923;-47
2022/03/23 03:47:33;;;;;;;;;;;17.70;29.70;;;;;;8365840;28;20384;-46
2022/03/23 03:51:34;;;;;;;;;;;17.70;29.70;;;;;;8365796;28;19935;-49
2022/03/23 03:55:35;;;;;;;;;;;17.70;29.80;;;;;;8368163;28;19927;-47
2022/03/23 03:59:36;;;;;;;;;;;17.70;29.70;;;;;;8366007;28;20007;-49
2022/03/23 04:03:36;;;;;;;;;;;17.70;29.80;;;;;;8363866;28;19913;-51
2022/03/23 04:07:37;;;;;;;;;;;17.70;29.80;;;;;;8363781;28;19913;-48
2022/03/23 04:11:38;;;;;;;;;;;17.70;29.80;;;;;;8362922;28;19932;-47
2022/03/23 04:15:38;;;;;;;;;;;17.70;29.80;;;;;;8363480;28;20385;-49
2022/03/23 04:19:39;;;;;;;;;;;17.70;29.80;;;;;;8363234;28;20013;-46
2022/03/23 04:23:40;;;;;;;;;;;17.70;29.80;;;;;;8362849;28;19996;-48
2022/03/23 04:27:47;;;;;;;;;;;17.60;29.80;;;;;;8363565;28;19975;-46
2022/03/23 04:31:48;;;;;;;;;;;17.60;29.80;;;;;;8362843;28;20017;-47
2022/03/23 04:35:48;;;;;;;;;;;17.60;29.80;;;;;;8362374;28;19917;-48
2022/03/23 04:39:49;;;;;;;;;;;17.60;29.80;;;;;;8362762;28;20008;-47
2022/03/23 04:43:49;;;;;;;;;;;17.60;29.80;;;;;;8369322;28;19927;-48
2022/03/23 04:47:50;;;;;;;;;;;17.60;29.80;;;;;;8369216;28;20389;-47
2022/03/23 04:51:51;;;;;;;;;;;17.60;29.80;;;;;;8369758;28;19921;-46
2022/03/23 04:55:51;;;;;;;;;;;17.60;29.80;;;;;;8369536;28;19924;-46
2022/03/23 04:59:52;;;;;;;;;;;17.60;29.80;;;;;;8368588;28;20039;-48
2022/03/23 05:03:53;;;;;;;;;;;17.60;29.80;;;;;;8369434;28;19917;-46
2022/03/23 05:07:53;;;;;;;;;;;17.60;29.80;;;;;;8369297;28;20396;-47
2022/03/23 05:11:54;;;;;;;;;;;17.50;29.80;;;;;;8334818;28;20253;-47
2022/03/23 05:15:54;;;;;;;;;;;17.50;29.80;;;;;;8335731;28;19917;-46
2022/03/23 05:19:55;;;;;;;;;;;17.50;29.80;;;;;;8336048;28;19913;-48
2022/03/23 05:23:55;;;;;;;;;;;17.50;29.80;;;;;;8335562;28;19999;-48
2022/03/23 05:27:55;;;;;;;;;;;17.50;29.80;;;;;;8335475;28;19917;-47
2022/03/23 05:31:56;;;;;;;;;;;17.50;29.80;;;;;;8335234;28;19995;-47
2022/03/23 05:35:56;;;;;;;;;;;17.50;29.80;;;;;;8334590;28;20393;-47
2022/03/23 05:39:57;;;;;;;;;;;17.50;29.80;;;;;;8334984;28;19917;-47
2022/03/23 05:43:57;;;;;;;;;;;17.50;29.80;;;;;;8335247;28;20015;-48
2022/03/23 05:47:58;;;;;;;;;;;17.50;29.80;;;;;;8334103;28;19917;-46
2022/03/23 05:51:59;;;;;;;;;;;17.50;29.80;;;;;;8334517;28;19917;-47
2022/03/23 05:55:59;;;;;;;;;;;17.50;29.80;;;;;;8334829;28;20015;-46
2022/03/23 06:00:00;;;;;;;;;;;17.50;29.80;;;;;;8333975;28;19985;-46
2022/03/23 06:04:00;;;;;;;;;;;17.50;29.90;;;;;;8334463;28;19920;-46
2022/03/23 06:08:03;;;;;;;;;;;17.50;29.80;;;;;;8333525;28;20218;-46
2022/03/23 06:12:04;;;;;;;;;;;17.40;29.80;;;;;;8333459;28;20374;-46
2022/03/23 06:16:06;;;;;;;;;;;17.40;29.80;;;;;;8333798;28;19959;-47
2022/03/23 06:20:07;;;;;;;;;;;17.40;29.80;;;;;;8333286;28;20297;-46
2022/03/23 06:24:08;;;;;;;;;;;17.40;29.80;;;;;;8334272;28;19913;-48
2022/03/23 06:28:09;;;;;;;;;;;17.40;29.80;;;;;;8315664;28;20012;-46
2022/03/23 06:32:09;;;;;;;;;;;17.40;29.80;;;;;;8332936;28;19917;-46
2022/03/23 06:36:09;;;;;;;;;;;17.50;29.70;;;;;;8333454;28;20423;-46
2022/03/23 06:40:10;;;;;;;;;;;17.70;29.50;;;;;;8333345;28;19920;-46
2022/03/23 06:44:11;;;;;;;;;;;17.80;29.30;;;;;;8332896;28;19924;-47
2022/03/23 06:48:12;;;;;;;;;;;17.90;29.20;;;;;;8333000;28;19925;-50
2022/03/23 06:52:12;;;;;;;;;;;18.00;29.10;;;;;;8371252;28;20392;-48
2022/03/23 06:56:13;;;;;;;;;;;17.90;29.20;;;;;;8370600;28;19921;-48
2022/03/23 07:00:13;;;;;;;;;;;17.80;29.30;;;;;;8332539;28;19923;-48
2022/03/23 07:04:14;;;;;;;;;;;17.80;29.30;;;;;;8332321;28;19913;-48
2022/03/23 07:12:33;;;;;;;;;;;17.70;29.50;;;;;;8332416;28;19924;-46
2022/03/23 07:16:34;;;;;;;;;;;17.70;29.50;;;;;;8332001;28;19918;-46
2022/03/23 07:20:35;;;;;;;;;;;17.60;29.60;;;;;;8331416;28;20321;-50
2022/03/23 07:24:35;;;;;;;;;;;17.60;29.60;;;;;;8331928;28;19928;-47
2022/03/23 07:28:35;;;;;;;;;;;17.60;29.70;;;;;;8331834;28;19972;-47
2022/03/23 07:32:38;;;;;;;;;;;17.50;29.70;;;;;;8331001;28;19917;-48
2022/03/23 07:36:39;;;;;;;;;;;17.60;29.70;;;;;;8331246;28;19921;-48
2022/03/23 07:40:39;;;;;;;;;;;17.60;29.60;;;;;;8331440;28;19989;-49
2022/03/23 07:44:40;;;;;;;;;;;17.70;29.60;;;;;;8330750;28;19917;-47
2022/03/23 07:48:41;;;;;;;;;;;17.70;29.50;;;;;;8330764;28;20302;-51
2022/03/23 07:52:41;;;;;;;;;;;17.70;29.50;;;;;;8330798;28;20302;-48
2022/03/23 07:56:41;;;;;;;;;;;17.70;29.60;;;;;;8330339;28;20016;-49
2022/03/23 08:00:43;;;;;;;;;;;17.70;29.60;;;;;;8331034;28;19913;-49
2022/03/23 08:04:43;;;;;;;;;;;17.70;29.70;;;;;;8330733;28;19922;-48
2022/03/23 08:08:44;;;;;;;;;;;17.60;29.70;;;;;;8329584;28;19984;-47
2022/03/23 08:12:44;;;;;;;;;;;17.60;29.70;;;;;;8330565;28;19963;-48
2022/03/23 08:16:46;;;;;;;;;;;17.60;29.80;;;;;;8329552;28;19913;-48
2022/03/23 08:20:47;;;;;;;;;;;17.60;29.80;;;;;;8329747;28;20444;-50
2022/03/23 08:24:47;;;;;;;;;;;17.60;29.80;;;;;;8330435;28;20329;-47
2022/03/23 08:28:48;;;;;;;;;;;17.60;29.80;;;;;;8330128;28;20020;-46
2022/03/23 08:32:48;;;;;;;;;;;17.60;29.80;;;;;;8329385;28;19921;-48
2022/03/23 08:36:49;;;;;;;;;;;17.60;29.80;;;;;;8330124;28;19920;-47
2022/03/23 08:40:50;;;;;;;;;;;17.60;29.80;;;;;;8329956;28;19928;-47
2022/03/23 08:44:50;;;;;;;;;;;17.60;29.80;;;;;;8329507;28;19913;-46
2022/03/23 08:48:52;;;;;;;;;;;17.60;29.80;;;;;;8329759;28;19933;-46
2022/03/23 08:52:53;;;;;;;;;;;17.60;29.80;;;;;;8329824;28;20285;-47
2022/03/23 08:56:53;;;;;;;;;;;17.60;29.80;;;;;;8329421;28;19921;-49
2022/03/23 09:00:54;;;;;;;;;;;17.60;29.90;;;;;;8329845;28;19913;-49
2022/03/23 09:04:54;;;;;;;;;;;17.70;29.90;;;;;;8329656;28;19964;-49
2022/03/23 09:08:55;;;;;;;;;;;17.70;29.90;;;;;;8328902;28;19929;-48
2022/03/23 09:12:55;;;;;;;;;;;17.70;29.90;;;;;;8329302;28;19947;-51
2022/03/23 09:16:55;;;;;;;;;;;17.70;29.90;;;;;;8329248;28;19920;-47
2022/03/23 09:20:56;;;;;;;;;;;17.70;29.90;;;;;;8328777;28;19917;-46
2022/03/23 09:24:56;;;;;;;;;;;17.70;29.90;;;;;;8329285;28;19967;-49
2022/03/23 09:28:57;;;;;;;;;;;17.80;29.80;;;;;;8333400;28;20298;-46
2022/03/23 09:33:00;;;;;;;;;;;17.80;29.80;;;;;;8334657;28;19917;-46
2022/03/23 09:41:20;;;;;;;;;;;17.80;29.80;;;;;;8336692;28;20274;-49
2022/03/23 09:46:03;;;;;;;;;;;17.80;29.80;;;;;;8335309;28;19945;-47
2022/03/23 09:49:45;;;;;;;;;;;17.80;29.80;;;;;;8327586;28;19931;-47
2022/03/23 09:53:45;;;;;;;;;;;17.80;29.90;;;;;;8334256;28;19917;-50
2022/03/23 09:57:45;;;;;;;;;;;17.80;29.80;;;;;;8334671;28;19928;-48
2022/03/23 10:01:46;;;;;;;;;;;17.90;29.90;;;;;;8334276;28;19913;-49
2022/03/23 10:05:46;;;;;;;;;;;17.90;29.90;;;;;;8334122;28;19917;-47
2022/03/23 10:10:06;;;;;;;;;;;17.90;29.90;;;;;;8334045;28;19925;-47
2022/03/23 10:14:25;;;;;;;;;;;17.90;29.90;;;;;;8333655;28;19921;-48
2022/03/23 10:18:44;;;;;;;;;;;17.90;29.90;;;;;;8333805;28;19967;-49
2022/03/23 10:22:49;;;;;;;;;;;17.90;29.90;;;;;;8333800;28;19913;-49
2022/03/23 10:26:49;;;;;;;;;;;18.00;29.90;;;;;;8333262;28;19924;-48
2022/03/23 10:30:50;;;;;;;;;;;18.00;29.90;;;;;;8333887;28;19943;-51
2022/03/23 10:34:51;;;;;;;;;;;18.00;29.80;;;;;;8333286;28;19952;-49
2022/03/23 10:38:58;;;;;;;;;;;18.00;29.80;;;;;;8331950;28;19943;-49
2022/03/23 10:42:58;;;;;;;;;;;18.10;29.80;;;;;;8333528;28;20012;-48
2022/03/23 10:46:59;;;;;;;;;;;18.00;29.80;;;;;;8333215;28;19920;-51
2022/03/23 10:50:59;;;;;;;;;;;18.10;29.80;;;;;;8332454;28;20008;-47
2022/03/23 10:55:01;;;;;;;;;;;18.10;29.90;;;;;;8332876;28;19921;-47
2022/03/23 10:59:25;;;;;;;;;;;18.10;30.20;;;;;;8332859;28;19949;-50
2022/03/23 11:03:36;;;;;;;;;;;18.10;29.80;;;;;;8332250;28;20324;-47
2022/03/23 11:07:38;;;;;;;;;;;18.10;29.80;;;;;;8338362;28;19917;-48
2022/03/23 11:16:13;;;;;;;;;;;18.20;29.80;;;;;;8365272;28;19924;-48
2022/03/23 11:20:15;;;;;;;;;;;18.20;29.80;;;;;;8364466;28;19924;-52
2022/03/23 11:24:16;;;;;;;;;;;18.20;29.80;;;;;;8365121;28;19920;-50
2022/03/23 11:28:17;;;;;;;;;;;18.20;29.80;;;;;;8364453;28;19920;-51
2022/03/23 11:32:27;;;;;;;;;;;18.30;29.80;;;;;;8364096;28;20018;-51
2022/03/23 11:36:28;;;;;;;;;;;18.30;29.80;;;;;;8369770;28;20284;-49
2022/03/23 11:40:29;;;;;;;;;;;18.30;29.80;;;;;;8364642;28;19917;-50
2022/03/23 11:44:30;;;;;;;;;;;18.30;29.90;;;;;;8363657;28;20511;-47
2022/03/23 11:48:53;;;;;;;;;;;18.30;29.80;;;;;;8364140;28;19932;-50
2022/03/23 11:53:03;;;;;;;;;;;18.40;29.80;;;;;;8363599;28;19917;-50
2022/03/23 11:57:03;;;;;;;;;;;18.40;29.90;;;;;;8363147;28;19921;-49
2022/03/23 12:01:08;;;;;;;;;;;18.40;29.80;;;;;;8364057;28;19913;-47
2022/03/23 12:05:24;;;;;;;;;;;18.40;29.80;;;;;;8363138;28;19927;-49
2022/03/23 12:09:31;;;;;;;;;;;18.40;29.80;;;;;;8363690;28;19925;-48
2022/03/23 12:13:52;;;;;;;;;;;18.40;29.80;;;;;;8363304;28;19924;-46
2022/03/23 12:17:55;;;;;;;;;;;18.50;29.80;;;;;;8362696;28;19917;-47
2022/03/23 12:21:58;;;;;;;;;;;18.50;29.80;;;;;;8363040;28;20031;-46
2022/03/23 12:26:03;;;;;;;;;;;18.50;29.80;;;;;;8363555;28;19917;-47
2022/03/23 12:30:07;;;;;;;;;;;18.50;29.80;;;;;;8362572;28;20397;-47
2022/03/23 12:34:27;;;;;;;;;;;18.60;29.80;;;;;;8363268;28;19921;-46
2022/03/23 12:38:29;;;;;;;;;;;18.60;29.80;;;;;;8362672;28;19916;-46
2022/03/23 12:42:31;;;;;;;;;;;18.60;29.80;;;;;;8363254;28;19921;-47
2022/03/23 12:46:42;;;;;;;;;;;18.60;29.80;;;;;;8363329;28;19913;-51
2022/03/23 12:59:33;;;;;;;;;;;18.60;29.80;;;;;;8363975;28;19992;-47
2022/03/23 13:03:43;;;;;;;;;;;18.70;29.80;;;;;;8367019;28;20439;-50
2022/03/23 13:07:44;;;;;;;;;;;18.70;29.90;;;;;;8369172;28;19917;-50
2022/03/23 13:11:55;;;;;;;;;;;18.70;29.80;;;;;;8368711;28;20343;-48
2022/03/23 13:15:56;;;;;;;;;;;18.70;29.80;;;;;;8374776;28;19924;-48
2022/03/23 13:19:57;;;;;;;;;;;18.70;29.80;;;;;;8362249;28;20351;-49
2022/03/23 13:24:01;;;;;;;;;;;18.70;29.80;;;;;;8368238;28;20412;-49
2022/03/23 13:28:10;;;;;;;;;;;18.70;29.80;;;;;;8368750;28;20324;-48
2022/03/23 13:32:10;;;;;;;;;;;18.80;29.90;;;;;;8368350;28;19943;-46
2022/03/23 13:36:11;;;;;;;;;;;18.80;29.80;;;;;;8368719;28;19917;-50
2022/03/23 13:40:12;;;;;;;;;;;18.80;29.80;;;;;;8368430;28;19920;-52
2022/03/23 13:44:14;;;;;;;;;;;18.80;29.80;;;;;;8367590;28;20378;-48
2022/03/23 13:48:15;;;;;;;;;;;18.80;29.80;;;;;;8368160;28;20382;-51
2022/03/23 13:52:15;;;;;;;;;;;18.80;29.80;;;;;;8368001;28;19913;-48
2022/03/23 13:56:17;;;;;;;;;;;18.80;29.80;;;;;;8367531;28;19959;-50
2022/03/23 14:00:25;;;;;;;;;;;18.80;29.80;;;;;;8367875;28;19932;-50
2022/03/23 14:04:28;;;;;;;;;;;18.80;29.80;;;;;;8367443;28;19924;-46
2022/03/23 14:08:29;;;;;;;;;;;18.90;29.80;;;;;;8366087;28;19924;-51
2022/03/23 14:12:31;;;;;;;;;;;18.90;29.80;;;;;;8366685;28;19984;-51
2022/03/23 14:16:32;;;;;;;;;;;18.80;29.80;;;;;;8366555;28;19919;-47
2022/03/23 14:20:32;;;;;;;;;;;18.90;29.80;;;;;;8366424;28;19917;-51
2022/03/23 14:24:34;;;;;;;;;;;18.90;29.80;;;;;;8366992;28;19925;-48
2022/03/23 14:28:44;;;;;;;;;;;18.90;29.80;;;;;;8366673;28;20023;-50
2022/03/23 14:32:50;;;;;;;;;;;18.90;29.70;;;;;;8365993;28;19919;-49
2022/03/23 14:37:07;;;;;;;;;;;18.90;29.80;;;;;;8366515;28;20354;-49
2022/03/23 14:41:10;;;;;;;;;;;19.00;29.80;;;;;;8365739;28;19920;-50
2022/03/23 14:45:33;;;;;;;;;;;18.90;29.70;;;;;;8366328;28;19917;-49
2022/03/23 14:49:37;;;;;;;;;;;18.90;29.70;;;;;;8366038;28;19928;-49
2022/03/23 14:53:37;;;;;;;;;;;18.90;29.70;;;;;;8365441;28;19920;-47
2022/03/23 14:57:38;;;;;;;;;;;19.00;29.80;;;;;;8366021;28;19927;-47
2022/03/23 15:01:38;;;;;;;;;;;19.00;29.70;;;;;;8365678;28;19920;-49
2022/03/23 15:14:17;;;;;;;;;;;19.00;29.70;;;;;;8365000;28;19935;-48
2022/03/23 15:18:18;;;;;;;;;;;19.00;29.70;;;;;;8365441;28;19917;-48
2022/03/23 15:22:18;;;;;;;;;;;19.00;29.70;;;;;;8365149;28;19916;-50
2022/03/23 15:26:23;;;;;;;;;;;19.00;29.70;;;;;;8363801;28;19921;-47
2022/03/23 15:30:23;;;;;;;;;;;19.00;30.00;;;;;;8364640;28;19925;-52
2022/03/23 15:34:24;;;;;;;;;;;19.00;29.70;;;;;;8364658;28;20328;-49
2022/03/23 15:38:30;;;;;;;;;;;19.10;29.70;;;;;;8362442;28;19921;-46
2022/03/23 15:46:50;;;;;;;;;;;19.10;29.70;;;;;;8364348;28;19970;-48
2022/03/23 15:50:50;;;;;;;;;;;19.10;29.70;;;;;;8364483;28;20015;-48
2022/03/23 15:54:51;;;;;;;;;;;19.10;29.70;;;;;;8364203;28;19928;-51
2022/03/23 15:58:52;;;;;;;;;;;19.10;29.70;;;;;;8363936;28;19924;-46
2022/03/23 16:02:52;;;;;;;;;;;19.10;29.70;;;;;;8363546;28;19995;-48
2022/03/23 16:06:53;;;;;;;;;;;19.10;29.70;;;;;;8363823;28;19962;-48
2022/03/23 16:10:53;;;;;;;;;;;19.10;29.70;;;;;;8363598;28;20420;-47
2022/03/23 16:14:54;;;;;;;;;;;19.10;29.60;;;;;;8363053;28;19923;-48
2022/03/23 16:18:55;;;;;;;;;;;19.10;29.70;;;;;;8358497;28;19917;-49
2022/03/23 16:22:56;;;;;;;;;;;19.10;29.70;;;;;;8330731;28;20262;-46
2022/03/23 16:26:57;;;;;;;;;;;19.10;29.60;;;;;;8329746;28;19918;-48
2022/03/23 16:30:57;;;;;;;;;;;19.10;29.70;;;;;;8330154;28;19925;-47
2022/03/23 16:34:58;;;;;;;;;;;19.10;29.70;;;;;;8330016;28;19917;-47
2022/03/23 16:38:58;;;;;;;;;;;19.20;29.60;;;;;;8328743;28;19921;-48
2022/03/23 16:43:00;;;;;;;;;;;19.10;29.60;;;;;;8329952;28;19918;-47
2022/03/23 16:47:00;;;;;;;;;;;19.20;29.60;;;;;;8329731;28;19975;-49
2022/03/23 16:51:00;;;;;;;;;;;19.20;29.70;;;;;;8329278;28;19925;-47
2022/03/23 16:55:01;;;;;;;;;;;19.10;29.60;;;;;;8335376;28;20015;-47
2022/03/23 16:59:02;;;;;;;;;;;19.20;29.70;;;;;;8342522;28;20278;-47
2022/03/23 17:16:00;;;;;;;;;;;19.10;29.60;;;;;;8329293;28;20339;-47
2022/03/23 17:20:01;;;;;;;;;;;19.10;29.60;;;;;;8353025;28;19917;-49
2022/03/23 17:24:02;;;;;;;;;;;19.20;29.60;;;;;;8328841;28;20011;-46
2022/03/23 17:28:02;;;;;;;;;;;19.10;29.60;;;;;;8335928;28;19924;-47
2022/03/23 17:32:04;;;;;;;;;;;19.10;29.70;;;;;;8356344;28;19924;-47
2022/03/23 17:36:06;;;;;;;;;;;19.10;29.60;;;;;;8361505;28;19924;-48
2022/03/23 17:40:07;;;;;;;;;;;19.10;29.60;;;;;;8339145;28;19924;-48
2022/03/23 17:44:07;;;;;;;;;;;19.10;29.70;;;;;;8328604;28;19913;-47
2022/03/23 17:48:08;;;;;;;;;;;19.10;30.00;;;;;;8330581;28;19913;-47
2022/03/23 17:52:08;;;;;;;;;;;19.10;29.70;;;;;;8347529;28;20317;-49
2022/03/23 17:56:09;;;;;;;;;;;19.10;29.70;;;;;;8367008;28;19994;-48
2022/03/23 18:00:10;;;;;;;;;;;19.10;29.70;;;;;;8367461;28;19970;-49
2022/03/23 18:04:11;;;;;;;;;;;19.10;29.70;;;;;;8350518;28;19917;-47
2022/03/23 18:08:11;;;;;;;;;;;19.10;29.70;;;;;;8338646;28;19924;-48
2022/03/23 18:12:15;;;;;;;;;;;19.00;29.70;;;;;;8334091;28;20017;-50
2022/03/23 18:16:15;;;;;;;;;;;19.00;29.70;;;;;;8333631;28;19925;-47
2022/03/23 18:20:16;;;;;;;;;;;19.10;29.70;;;;;;8337290;28;20384;-46
2022/03/23 18:24:17;;;;;;;;;;;19.00;29.70;;;;;;8334087;28;20267;-46
2022/03/23 18:28:17;;;;;;;;;;;19.00;29.70;;;;;;8333934;28;20286;-46
2022/03/23 18:32:18;;;;;;;;;;;19.00;29.70;;;;;;8367664;28;19947;-46
2022/03/23 18:36:18;;;;;;;;;;;19.00;29.70;;;;;;8338382;28;20464;-47
2022/03/23 18:40:19;;;;;;;;;;;19.00;29.70;;;;;;8335371;28;19999;-47
2022/03/23 18:44:20;;;;;;;;;;;19.00;29.70;;;;;;8332237;28;20346;-48
2022/03/23 18:48:20;;;;;;;;;;;19.00;29.70;;;;;;8336345;28;20297;-48
2022/03/23 18:52:21;;;;;;;;;;;19.00;29.70;;;;;;8355360;28;19986;-49
2022/03/23 18:56:21;;;;;;;;;;;19.00;29.70;;;;;;8345917;28;20381;-49
2022/03/23 19:00:24;;;;;;;;;;;19.00;29.70;;;;;;8331905;28;20007;-46
2022/03/23 19:04:24;;;;;;;;;;;19.00;29.70;;;;;;8333517;28;20036;-47
2022/03/23 19:08:27;;;;;;;;;;;19.00;29.70;;;;;;8332097;28;19925;-51
2022/03/23 19:12:28;;;;;;;;;;;19.00;29.70;;;;;;8332432;28;19929;-48
2022/03/23 19:16:29;;;;;;;;;;;19.00;29.70;;;;;;8332718;28;19927;-46
2022/03/23 19:20:30;;;;;;;;;;;19.00;29.70;;;;;;8364719;28;19948;-46
2022/03/23 19:24:30;;;;;;;;;;;19.00;29.80;;;;;;8341562;28;19921;-48
2022/03/23 19:28:35;;;;;;;;;;;19.00;29.80;;;;;;8349126;28;19971;-48
2022/03/23 19:32:35;;;;;;;;;;;19.00;29.80;;;;;;8335346;28;19998;-47
2022/03/23 19:36:36;;;;;;;;;;;19.00;29.80;;;;;;8332197;28;20370;-47
2022/03/23 19:40:38;;;;;;;;;;;19.00;29.80;;;;;;8332923;28;20148;-48
2022/03/23 19:44:41;;;;;;;;;;;19.00;29.80;;;;;;8331772;28;20378;-52
2022/03/23 19:48:44;;;;;;;;;;;19.00;29.80;;;;;;8351096;28;19917;-49
2022/03/23 19:52:46;;;;;;;;;;;19.00;29.80;;;;;;8338569;28;19917;-51
2022/03/23 19:56:47;;;;;;;;;;;19.00;29.80;;;;;;8353340;28;19970;-48
2022/03/23 20:00:47;;;;;;;;;;;19.00;29.70;;;;;;8380128;28;20290;-48
2022/03/23 20:04:49;;;;;;;;;;;19.00;29.70;;;;;;8357219;28;19924;-49
2022/03/23 20:08:50;;;;;;;;;;;19.00;29.70;;;;;;8359133;28;20018;-47
2022/03/23 20:12:51;;;;;;;;;;;19.00;29.70;;;;;;8350007;28;20397;-49
2022/03/23 20:16:52;;;;;;;;;;;19.00;29.70;;;;;;8340759;28;20328;-46
2022/03/23 20:20:52;;;;;;;;;;;19.00;29.70;;;;;;8339724;28;19923;-49
2022/03/23 20:24:53;;;;;;;;;;;18.90;29.70;;;;;;8330300;28;19923;-48
2022/03/23 20:28:53;;;;;;;;;;;18.90;29.70;;;;;;8329244;28;20003;-47
2022/03/23 20:32:55;;;;;;;;;;;18.90;29.70;;;;;;8329739;28;19921;-48
2022/03/23 20:36:55;;;;;;;;;;;18.90;29.70;;;;;;8330129;28;19996;-47
2022/03/23 20:40:58;;;;;;;;;;;19.00;29.70;;;;;;8329994;28;20405;-49
2022/03/23 20:45:03;;;;;;;;;;;19.00;29.60;;;;;;8329759;28;20004;-48
2022/03/23 20:49:07;;;;;;;;;;;18.90;29.60;;;;;;8330086;28;19929;-47
2022/03/23 20:53:09;;;;;;;;;;;18.90;29.70;;;;;;8329261;28;19918;-49
2022/03/23 20:57:10;;;;;;;;;;;18.90;29.60;;;;;;8330108;28;20302;-47
2022/03/23 21:01:10;;;;;;;;;;;18.90;29.60;;;;;;8329877;28;19919;-48
2022/03/23 21:05:13;;;;;;;;;;;18.90;29.60;;;;;;8329455;28;19971;-47
2022/03/23 21:09:13;;;;;;;;;;;18.90;29.60;;;;;;8330141;28;20279;-47
2022/03/23 21:13:13;;;;;;;;;;;18.90;29.50;;;;;;8329744;28;19917;-46
2022/03/23 21:17:16;;;;;;;;;;;18.90;29.60;;;;;;8329010;28;19913;-48
2022/03/23 21:21:16;;;;;;;;;;;18.90;29.60;;;;;;8311906;28;19913;-49
2022/03/23 21:25:17;;;;;;;;;;;18.90;29.60;;;;;;8334619;28;20362;-48
2022/03/23 21:29:18;;;;;;;;;;;18.90;29.60;;;;;;8335160;28;20019;-48
2022/03/23 21:33:19;;;;;;;;;;;18.90;29.60;;;;;;8335796;28;19917;-49
2022/03/23 21:37:20;;;;;;;;;;;18.90;29.60;;;;;;8335276;28;19921;-46
2022/03/23 21:41:21;;;;;;;;;;;18.90;29.60;;;;;;8334684;28;20320;-47
2022/03/23 21:45:22;;;;;;;;;;;18.90;29.60;;;;;;8335711;28;19913;-50
2022/03/23 21:49:22;;;;;;;;;;;18.90;29.60;;;;;;8334963;28;19925;-50
2022/03/23 21:53:23;;;;;;;;;;;18.90;29.60;;;;;;8334406;28;20354;-51
2022/03/23 21:57:23;;;;;;;;;;;18.90;29.60;;;;;;8334972;28;19921;-48
2022/03/23 22:01:24;;;;;;;;;;;18.90;29.60;;;;;;8334811;28;19920;-48
2022/03/23 22:05:24;;;;;;;;;;;18.90;29.60;;;;;;8334360;28;19963;-47
2022/03/23 22:09:25;;;;;;;;;;;18.90;29.60;;;;;;8334135;28;20379;-48
2022/03/23 22:13:26;;;;;;;;;;;18.90;29.50;;;;;;8316877;28;20351;-47
2022/03/23 22:17:26;;;;;;;;;;;18.90;29.60;;;;;;8333703;28;20500;-47
2022/03/23 22:21:27;;;;;;;;;;;18.90;29.60;;;;;;8316171;28;20313;-48
2022/03/23 22:25:27;;;;;;;;;;;18.80;29.50;;;;;;8334248;28;19917;-46
2022/03/23 22:29:28;;;;;;;;;;;18.80;29.50;;;;;;8333085;28;19929;-47
2022/03/23 22:33:29;;;;;;;;;;;18.80;29.50;;;;;;8333250;28;19924;-46
2022/03/23 22:37:29;;;;;;;;;;;18.80;29.50;;;;;;8332718;28;19921;-49
2022/03/23 22:41:32;;;;;;;;;;;18.80;29.50;;;;;;8332770;28;19917;-47
2022/03/23 22:45:32;;;;;;;;;;;18.80;29.50;;;;;;8333594;28;20369;-47
2022/03/23 22:49:33;;;;;;;;;;;18.80;29.50;;;;;;8333082;28;19963;-46
2022/03/23 22:53:34;;;;;;;;;;;18.80;29.50;;;;;;8332473;28;19917;-47
2022/03/23 22:57:34;;;;;;;;;;;18.80;29.50;;;;;;8332635;28;20008;-49
2022/03/23 23:01:34;;;;;;;;;;;18.80;29.50;;;;;;8339586;28;19913;-46
2022/03/23 23:05:35;;;;;;;;;;;18.70;29.50;;;;;;8332328;28;19917;-46
2022/03/23 23:09:36;;;;;;;;;;;18.70;29.50;;;;;;8332337;28;19929;-47
2022/03/23 23:13:37;;;;;;;;;;;18.70;29.50;;;;;;8332101;28;19917;-47
2022/03/23 23:17:37;;;;;;;;;;;18.70;29.50;;;;;;8331831;28;19943;-48
2022/03/23 23:21:37;;;;;;;;;;;18.70;29.50;;;;;;8332071;28;19913;-46
2022/03/23 23:25:38;;;;;;;;;;;18.70;29.50;;;;;;8332297;28;19921;-46
2022/03/23 23:29:44;;;;;;;;;;;18.70;29.60;;;;;;8331344;28;19932;-47
2022/03/23 23:33:46;;;;;;;;;;;18.70;29.50;;;;;;8331951;28;20331;-47
2022/03/23 23:37:47;;;;;;;;;;;18.70;29.60;;;;;;8331628;28;19913;-48
2022/03/23 23:41:47;;;;;;;;;;;18.70;29.60;;;;;;8330925;28;19924;-47
2022/03/23 23:45:48;;;;;;;;;;;18.60;29.50;;;;;;8331475;28;19914;-46
2022/03/23 23:49:48;;;;;;;;;;;18.60;29.50;;;;;;8331327;28;19925;-51
2022/03/23 23:53:49;;;;;;;;;;;18.60;29.50;;;;;;8330767;28;19929;-48
2022/03/23 23:57:49;;;;;;;;;;;18.60;29.60;;;;;;8331236;28;20012;-46
